sensor_id;sensor_type;location;lat;lon;timestamp;P1;durP1;ratioP1;P2;durP2;ratioP2
75922;SDS011;64602;47.542;19.090;2022-12-31T07:34:26;45.28;;;15.68;;
75922;SDS011;64602;47.542;19.090;2022-12-31T07:39:56;49.97;;;17.17;;
75922;SDS011;64602;47.542;19.090;2022-12-31T07:45:17;48.00;;;16.87;;
75922;SDS011;64602;47.542;19.090;2022-12-31T07:50:25;53.38;;;17.20;;
75922;SDS011;64602;47.542;19.090;2022-12-31T07:55:27;47.57;;;16.60;;
75922;SDS011;64602;47.542;19.090;2022-12-31T08:00:29;52.40;;;17.90;;
75922;SDS011;64602;47.542;19.090;2022-12-31T08:11:17;46.10;;;16.52;;
75922;SDS011;64602;47.542;19.090;2022-12-31T08:16:29;45.03;;;15.90;;
75922;SDS011;64602;47.542;19.090;2022-12-31T08:26:46;53.80;;;19.33;;
75922;SDS011;64602;47.542;19.090;2022-12-31T08:37:09;47.40;;;17.80;;
75922;SDS011;64602;47.542;19.090;2022-12-31T08:42:39;45.15;;;17.85;;
75922;SDS011;64602;47.542;19.090;2022-12-31T08:48:23;45.60;;;18.37;;
75922;SDS011;64602;47.542;19.090;2022-12-31T08:53:27;43.73;;;17.40;;
75922;SDS011;64602;47.542;19.090;2022-12-31T09:19:19;48.15;;;17.10;;
75922;SDS011;64602;47.542;19.090;2022-12-31T09:24:21;56.20;;;17.73;;
75922;SDS011;64602;47.542;19.090;2022-12-31T09:40:32;51.67;;;19.30;;
75922;SDS011;64602;47.542;19.090;2022-12-31T09:56:58;57.60;;;20.10;;
75922;SDS011;64602;47.542;19.090;2022-12-31T10:07:52;55.63;;;20.05;;
75922;SDS011;64602;47.542;19.090;2022-12-31T10:13:22;49.75;;;20.73;;
75922;SDS011;64602;47.542;19.090;2022-12-31T10:23:58;39.53;;;18.42;;
75922;SDS011;64602;47.542;19.090;2022-12-31T10:35:00;45.63;;;19.77;;
75922;SDS011;64602;47.542;19.090;2022-12-31T11:18:37;45.78;;;20.67;;
75922;SDS011;64602;47.542;19.090;2022-12-31T11:51:04;50.87;;;20.33;;
75922;SDS011;64602;47.542;19.090;2022-12-31T11:56:37;50.00;;;21.17;;
75922;SDS011;64602;47.542;19.090;2022-12-31T12:06:44;51.50;;;22.37;;
75922;SDS011;64602;47.542;19.090;2022-12-31T12:11:46;47.45;;;20.95;;
75922;SDS011;64602;47.542;19.090;2022-12-31T12:17:01;46.05;;;21.33;;
75922;SDS011;64602;47.542;19.090;2022-12-31T12:22:46;47.73;;;21.23;;
75922;SDS011;64602;47.542;19.090;2022-12-31T12:27:35;43.43;;;21.90;;
75922;SDS011;64602;47.542;19.090;2022-12-31T12:32:37;44.30;;;21.42;;
75922;SDS011;64602;47.542;19.090;2022-12-31T12:37:40;44.22;;;22.85;;
75922;SDS011;64602;47.542;19.090;2022-12-31T12:42:45;47.03;;;22.97;;
75922;SDS011;64602;47.542;19.090;2022-12-31T12:47:50;49.03;;;24.33;;
75922;SDS011;64602;47.542;19.090;2022-12-31T12:53:07;40.35;;;22.05;;
75922;SDS011;64602;47.542;19.090;2022-12-31T13:15:11;53.90;;;23.93;;
75922;SDS011;64602;47.542;19.090;2022-12-31T13:31:04;46.58;;;22.98;;
75922;SDS011;64602;47.542;19.090;2022-12-31T13:36:14;51.37;;;23.33;;
75922;SDS011;64602;47.542;19.090;2022-12-31T13:46:44;45.65;;;23.23;;
75922;SDS011;64602;47.542;19.090;2022-12-31T13:52:05;45.17;;;22.03;;
75922;SDS011;64602;47.542;19.090;2022-12-31T14:08:05;46.87;;;21.70;;
75922;SDS011;64602;47.542;19.090;2022-12-31T14:18:21;44.47;;;21.67;;
75922;SDS011;64602;47.542;19.090;2022-12-31T14:34:20;44.85;;;22.17;;
75922;SDS011;64602;47.542;19.090;2022-12-31T14:39:37;44.30;;;24.92;;
75922;SDS011;64602;47.542;19.090;2022-12-31T14:50:29;43.33;;;22.67;;
75922;SDS011;64602;47.542;19.090;2022-12-31T14:55:35;40.22;;;22.27;;
75922;SDS011;64602;47.542;19.090;2022-12-31T15:00:49;39.67;;;20.53;;
75922;SDS011;64602;47.542;19.090;2022-12-31T15:06:02;40.07;;;22.60;;
75922;SDS011;64602;47.542;19.090;2022-12-31T15:17:15;38.97;;;20.67;;
75922;SDS011;64602;47.542;19.090;2022-12-31T15:22:51;50.33;;;30.47;;
75922;SDS011;64602;47.542;19.090;2022-12-31T15:27:55;39.50;;;21.77;;
75922;SDS011;64602;47.542;19.090;2022-12-31T15:33:00;38.75;;;20.60;;
75922;SDS011;64602;47.542;19.090;2022-12-31T15:43:16;35.63;;;19.02;;
75922;SDS011;64602;47.542;19.090;2022-12-31T15:48:43;34.33;;;18.70;;
75922;SDS011;64602;47.542;19.090;2022-12-31T15:54:05;35.10;;;18.93;;
75922;SDS011;64602;47.542;19.090;2022-12-31T15:59:17;34.10;;;18.67;;
75922;SDS011;64602;47.542;19.090;2022-12-31T16:04:27;43.50;;;23.38;;
75922;SDS011;64602;47.542;19.090;2022-12-31T16:09:33;39.78;;;22.67;;
75922;SDS011;64602;47.542;19.090;2022-12-31T16:14:39;41.20;;;21.93;;
75922;SDS011;64602;47.542;19.090;2022-12-31T16:19:44;41.72;;;22.08;;
75922;SDS011;64602;47.542;19.090;2022-12-31T16:24:56;36.67;;;20.30;;
75922;SDS011;64602;47.542;19.090;2022-12-31T16:40:30;35.75;;;19.90;;
75922;SDS011;64602;47.542;19.090;2022-12-31T16:45:33;37.23;;;20.20;;
75922;SDS011;64602;47.542;19.090;2022-12-31T16:50:37;41.67;;;21.60;;
75922;SDS011;64602;47.542;19.090;2022-12-31T16:55:39;37.80;;;21.02;;
75922;SDS011;64602;47.542;19.090;2022-12-31T17:00:42;42.08;;;22.27;;
75922;SDS011;64602;47.542;19.090;2022-12-31T17:11:17;47.53;;;25.37;;
75922;SDS011;64602;47.542;19.090;2022-12-31T17:16:24;52.85;;;28.23;;
75922;SDS011;64602;47.542;19.090;2022-12-31T17:21:27;49.40;;;27.33;;
75922;SDS011;64602;47.542;19.090;2022-12-31T17:26:35;49.38;;;26.50;;
75922;SDS011;64602;47.542;19.090;2022-12-31T17:31:39;45.45;;;26.60;;
75922;SDS011;64602;47.542;19.090;2022-12-31T17:42:03;49.53;;;28.53;;
75922;SDS011;64602;47.542;19.090;2022-12-31T17:47:06;59.28;;;30.52;;
75922;SDS011;64602;47.542;19.090;2022-12-31T17:52:13;54.65;;;30.05;;
75922;SDS011;64602;47.542;19.090;2022-12-31T17:57:20;56.77;;;31.33;;
75922;SDS011;64602;47.542;19.090;2022-12-31T18:02:28;56.45;;;30.95;;
75922;SDS011;64602;47.542;19.090;2022-12-31T18:07:30;56.28;;;30.65;;
75922;SDS011;64602;47.542;19.090;2022-12-31T18:12:32;60.07;;;32.63;;
75922;SDS011;64602;47.542;19.090;2022-12-31T18:17:36;60.75;;;33.03;;
75922;SDS011;64602;47.542;19.090;2022-12-31T18:22:38;60.80;;;33.10;;
75922;SDS011;64602;47.542;19.090;2022-12-31T18:27:42;61.37;;;33.87;;
75922;SDS011;64602;47.542;19.090;2022-12-31T18:32:44;73.07;;;39.33;;
75922;SDS011;64602;47.542;19.090;2022-12-31T18:37:46;75.30;;;40.67;;
75922;SDS011;64602;47.542;19.090;2022-12-31T18:42:49;80.32;;;40.12;;
75922;SDS011;64602;47.542;19.090;2022-12-31T18:47:52;87.43;;;43.60;;
75922;SDS011;64602;47.542;19.090;2022-12-31T18:52:56;80.85;;;42.25;;
75922;SDS011;64602;47.542;19.090;2022-12-31T18:57:58;80.68;;;41.28;;
75922;SDS011;64602;47.542;19.090;2022-12-31T19:03:00;91.10;;;44.07;;
75922;SDS011;64602;47.542;19.090;2022-12-31T19:08:03;86.05;;;43.22;;
75922;SDS011;64602;47.542;19.090;2022-12-31T19:13:05;84.82;;;41.45;;
75922;SDS011;64602;47.542;19.090;2022-12-31T19:18:07;81.67;;;38.83;;
75922;SDS011;64602;47.542;19.090;2022-12-31T19:23:17;77.97;;;37.80;;
75922;SDS011;64602;47.542;19.090;2022-12-31T19:28:23;82.78;;;37.85;;
75922;SDS011;64602;47.542;19.090;2022-12-31T19:33:26;82.75;;;38.97;;
75922;SDS011;64602;47.542;19.090;2022-12-31T19:38:28;77.17;;;38.60;;
75922;SDS011;64602;47.542;19.090;2022-12-31T19:43:32;80.60;;;41.08;;
75922;SDS011;64602;47.542;19.090;2022-12-31T19:48:34;93.70;;;45.50;;
75922;SDS011;64602;47.542;19.090;2022-12-31T19:53:37;88.17;;;43.60;;
75922;SDS011;64602;47.542;19.090;2022-12-31T19:58:39;89.43;;;41.85;;
75922;SDS011;64602;47.542;19.090;2022-12-31T20:03:42;78.82;;;38.60;;
75922;SDS011;64602;47.542;19.090;2022-12-31T20:08:44;79.37;;;37.63;;
75922;SDS011;64602;47.542;19.090;2022-12-31T20:13:47;78.00;;;39.40;;
75922;SDS011;64602;47.542;19.090;2022-12-31T20:18:51;87.82;;;39.95;;
75922;SDS011;64602;47.542;19.090;2022-12-31T20:23:53;83.47;;;39.25;;
75922;SDS011;64602;47.542;19.090;2022-12-31T20:28:56;81.50;;;39.47;;
75922;SDS011;64602;47.542;19.090;2022-12-31T20:33:58;82.10;;;39.35;;
75922;SDS011;64602;47.542;19.090;2022-12-31T20:39:00;78.82;;;38.63;;
75922;SDS011;64602;47.542;19.090;2022-12-31T20:44:02;81.73;;;39.80;;
75922;SDS011;64602;47.542;19.090;2022-12-31T20:49:04;82.10;;;40.33;;
75922;SDS011;64602;47.542;19.090;2022-12-31T20:54:08;92.40;;;44.22;;
75922;SDS011;64602;47.542;19.090;2022-12-31T20:59:11;79.87;;;42.43;;
75922;SDS011;64602;47.542;19.090;2022-12-31T21:04:13;92.77;;;44.07;;
75922;SDS011;64602;47.542;19.090;2022-12-31T21:09:16;89.70;;;46.45;;
75922;SDS011;64602;47.542;19.090;2022-12-31T21:14:18;94.13;;;45.92;;
75922;SDS011;64602;47.542;19.090;2022-12-31T21:19:21;94.77;;;46.03;;
75922;SDS011;64602;47.542;19.090;2022-12-31T21:24:23;103.25;;;48.15;;
75922;SDS011;64602;47.542;19.090;2022-12-31T21:29:25;95.85;;;45.25;;
75922;SDS011;64602;47.542;19.090;2022-12-31T21:34:34;88.10;;;42.17;;
75922;SDS011;64602;47.542;19.090;2022-12-31T21:39:36;92.60;;;44.42;;
75922;SDS011;64602;47.542;19.090;2022-12-31T21:44:39;93.90;;;44.78;;
75922;SDS011;64602;47.542;19.090;2022-12-31T21:49:41;92.67;;;45.37;;
75922;SDS011;64602;47.542;19.090;2022-12-31T21:54:46;95.67;;;45.13;;
75922;SDS011;64602;47.542;19.090;2022-12-31T22:00:06;88.72;;;43.13;;
75922;SDS011;64602;47.542;19.090;2022-12-31T22:05:48;83.90;;;43.47;;
75922;SDS011;64602;47.542;19.090;2022-12-31T22:10:53;97.40;;;46.63;;
75922;SDS011;64602;47.542;19.090;2022-12-31T22:15:56;94.97;;;46.47;;
75922;SDS011;64602;47.542;19.090;2022-12-31T22:21:07;100.25;;;47.85;;
75922;SDS011;64602;47.542;19.090;2022-12-31T22:26:22;99.90;;;46.97;;
75922;SDS011;64602;47.542;19.090;2022-12-31T22:31:26;97.10;;;44.75;;
75922;SDS011;64602;47.542;19.090;2022-12-31T22:36:32;96.85;;;47.03;;
75922;SDS011;64602;47.542;19.090;2022-12-31T22:41:35;96.83;;;45.20;;
75922;SDS011;64602;47.542;19.090;2022-12-31T22:46:37;89.60;;;45.30;;
75922;SDS011;64602;47.542;19.090;2022-12-31T22:51:39;87.93;;;41.85;;
75922;SDS011;64602;47.542;19.090;2022-12-31T22:56:59;84.15;;;41.45;;
75922;SDS011;64602;47.542;19.090;2022-12-31T23:02:02;86.17;;;42.70;;
75922;SDS011;64602;47.542;19.090;2022-12-31T23:07:04;85.40;;;42.22;;
75922;SDS011;64602;47.542;19.090;2022-12-31T23:12:08;86.93;;;43.00;;
75922;SDS011;64602;47.542;19.090;2022-12-31T23:17:15;88.37;;;45.43;;
